createdAt,value
2024-02-29T00:00:36.517Z,5.79
2024-02-29T00:01:36.249Z,5.78
2024-02-29T00:02:35.930Z,5.81
2024-02-29T00:03:58.350Z,5.81
2024-02-29T00:04:36.076Z,5.81
2024-02-29T00:05:36.333Z,5.79
2024-02-29T00:06:36.108Z,5.81
2024-02-29T00:07:36.317Z,5.78
2024-02-29T00:08:36.065Z,5.79
2024-02-29T00:09:36.406Z,5.81
2024-02-29T00:10:36.074Z,5.79
2024-02-29T00:11:35.806Z,5.81
2024-02-29T00:12:42.392Z,5.79
2024-02-29T00:13:58.098Z,5.85
2024-02-29T00:14:35.924Z,5.83
2024-02-29T00:15:36.219Z,5.86
2024-02-29T00:16:35.955Z,5.89
2024-02-29T00:17:36.204Z,5.90
2024-02-29T00:18:35.971Z,5.91
2024-02-29T00:19:36.185Z,5.91
2024-02-29T00:20:35.964Z,5.94
2024-02-29T00:21:37.215Z,5.93
2024-02-29T00:22:35.933Z,5.96
2024-02-29T00:23:57.020Z,5.96
2024-02-29T00:24:36.132Z,5.94
2024-02-29T00:25:35.852Z,5.94
2024-02-29T00:26:36.113Z,5.96
2024-02-29T00:27:35.952Z,5.94
2024-02-29T00:28:36.114Z,5.96
2024-02-29T00:29:35.854Z,5.96
2024-02-29T00:30:36.195Z,6.00
2024-02-29T00:31:35.859Z,6.01
2024-02-29T00:32:35.641Z,6.04
2024-02-29T00:33:57.919Z,6.08
2024-02-29T00:34:45.456Z,6.06
2024-02-29T00:35:35.728Z,6.06
2024-02-29T00:36:36.069Z,6.06
2024-02-29T00:37:35.769Z,6.08
2024-02-29T00:38:35.971Z,6.09
2024-02-29T00:39:35.741Z,6.06
2024-02-29T00:40:36.340Z,6.09
2024-02-29T00:41:35.712Z,6.09
2024-02-29T00:42:36.903Z,6.11
2024-02-29T00:43:57.768Z,6.11
2024-02-29T00:44:35.567Z,6.12
2024-02-29T00:45:35.887Z,6.14
2024-02-29T00:46:36.117Z,6.14
2024-02-29T00:47:35.873Z,6.17
2024-02-29T00:48:35.604Z,6.15
2024-02-29T00:49:35.825Z,6.17
2024-02-29T00:50:35.611Z,6.18
2024-02-29T00:51:35.953Z,6.19
2024-02-29T00:52:35.596Z,6.19
2024-02-29T00:53:55.852Z,6.19
2024-02-29T00:54:35.677Z,6.21
2024-02-29T00:55:35.829Z,6.19
2024-02-29T00:56:35.600Z,6.19
2024-02-29T00:57:35.870Z,6.22
2024-02-29T00:58:35.606Z,6.21
2024-02-29T00:59:35.374Z,6.21
2024-02-29T01:00:35.769Z,6.21
2024-02-29T01:01:35.459Z,6.21
2024-02-29T01:02:35.646Z,6.22
2024-02-29T01:03:56.632Z,6.22
2024-02-29T01:04:35.638Z,6.22
2024-02-29T01:05:35.389Z,6.22
2024-02-29T01:06:35.647Z,6.25
2024-02-29T01:07:35.366Z,6.28
2024-02-29T01:08:35.657Z,6.33
2024-02-29T01:09:35.900Z,6.34
2024-02-29T01:10:35.625Z,6.36
2024-02-29T01:11:35.358Z,6.37
2024-02-29T01:12:35.623Z,6.37
2024-02-29T01:13:55.355Z,6.38
2024-02-29T01:14:35.612Z,6.40
2024-02-29T01:15:35.426Z,6.40
2024-02-29T01:16:35.654Z,6.38
2024-02-29T01:17:35.425Z,6.37
2024-02-29T01:18:35.179Z,6.37
2024-02-29T01:19:35.462Z,6.34
2024-02-29T01:20:35.161Z,6.31
2024-02-29T01:21:35.475Z,6.36
2024-02-29T01:22:35.173Z,6.31
2024-02-29T01:23:55.409Z,6.30
2024-02-29T01:24:35.198Z,6.30
2024-02-29T01:25:35.422Z,6.33
2024-02-29T01:26:35.278Z,6.31
2024-02-29T01:27:35.469Z,6.30
2024-02-29T01:28:35.156Z,6.28
2024-02-29T01:29:35.402Z,6.28
2024-02-29T01:30:35.223Z,6.28
2024-02-29T01:31:35.421Z,6.27
2024-02-29T01:32:37.679Z,6.22
2024-02-29T01:33:56.146Z,6.25
2024-02-29T01:34:35.247Z,6.25
2024-02-29T01:35:35.011Z,6.25
2024-02-29T01:36:35.283Z,6.22
2024-02-29T01:37:40.347Z,6.22
2024-02-29T01:38:35.130Z,6.25
2024-02-29T01:39:35.414Z,6.25
2024-02-29T01:40:35.130Z,6.30
2024-02-29T01:41:35.378Z,6.28
2024-02-29T01:42:35.146Z,6.33
2024-02-29T01:43:57.478Z,6.33
2024-02-29T01:44:35.260Z,6.33
2024-02-29T01:45:35.030Z,6.33
2024-02-29T01:46:35.251Z,6.33
2024-02-29T01:47:35.053Z,6.36
2024-02-29T01:48:35.271Z,6.37
2024-02-29T01:49:34.994Z,6.38
2024-02-29T01:50:35.264Z,6.41
2024-02-29T01:51:35.036Z,6.41
2024-02-29T01:52:35.273Z,6.44
2024-02-29T01:53:57.032Z,6.46
2024-02-29T01:54:34.840Z,6.44
2024-02-29T01:55:35.113Z,6.46
2024-02-29T01:56:34.802Z,6.46
2024-02-29T01:57:35.096Z,6.48
2024-02-29T01:58:34.790Z,6.51
2024-02-29T01:59:35.061Z,6.51
2024-02-29T02:00:34.836Z,6.52
2024-02-29T02:01:35.172Z,6.52
2024-02-29T02:02:34.771Z,6.54
2024-02-29T02:03:55.610Z,6.55
2024-02-29T02:04:34.872Z,6.56
2024-02-29T02:05:35.126Z,6.58
2024-02-29T02:06:34.983Z,6.61
2024-02-29T02:07:35.129Z,6.59
2024-02-29T02:08:34.878Z,6.61
2024-02-29T02:09:35.149Z,6.62
2024-02-29T02:10:34.896Z,6.64
2024-02-29T02:11:34.654Z,6.66
2024-02-29T02:12:34.889Z,6.69
2024-02-29T02:13:56.660Z,6.71
2024-02-29T02:14:34.947Z,6.73
2024-02-29T02:15:34.734Z,6.74
2024-02-29T02:16:34.948Z,6.76
2024-02-29T02:17:34.882Z,6.74
2024-02-29T02:18:34.996Z,6.76
2024-02-29T02:19:34.719Z,6.77
2024-02-29T02:20:42.284Z,6.77
2024-02-29T02:21:34.587Z,6.77
2024-02-29T02:22:34.802Z,6.77
2024-02-29T02:23:56.061Z,6.79
2024-02-29T02:24:34.927Z,6.81
2024-02-29T02:25:34.637Z,6.81
2024-02-29T02:26:34.872Z,6.84
2024-02-29T02:27:34.718Z,6.85
2024-02-29T02:28:34.886Z,6.87
2024-02-29T02:29:34.644Z,6.85
2024-02-29T02:30:34.933Z,6.85
2024-02-29T02:31:34.652Z,6.87
2024-02-29T02:32:34.914Z,6.87
2024-02-29T02:33:55.391Z,6.89
2024-02-29T02:34:34.656Z,6.89
2024-02-29T02:35:35.320Z,6.91
2024-02-29T02:36:36.247Z,6.91
2024-02-29T02:37:35.089Z,6.94
2024-02-29T02:38:35.111Z,6.95
2024-02-29T02:39:35.791Z,6.95
2024-02-29T02:40:36.760Z,6.97
2024-02-29T02:41:36.571Z,6.98
2024-02-29T02:42:36.384Z,6.98
2024-02-29T02:45:11.056Z,7.02
2024-02-29T02:46:10.572Z,6.99
2024-02-29T02:47:10.733Z,7.03
2024-02-29T02:48:10.616Z,7.03
2024-02-29T02:49:12.204Z,7.05
2024-02-29T02:50:17.839Z,7.05
2024-02-29T02:51:12.537Z,7.09
2024-02-29T02:52:10.504Z,7.07
2024-02-29T02:53:12.012Z,7.09
2024-02-29T02:54:31.360Z,7.07
2024-02-29T02:55:10.756Z,7.07
2024-02-29T02:56:10.388Z,7.07
2024-02-29T02:57:10.621Z,7.09
2024-02-29T02:58:10.555Z,7.09
2024-02-29T02:59:12.564Z,7.09
2024-02-29T03:00:10.513Z,7.09
2024-02-29T03:01:10.174Z,7.10
2024-02-29T03:02:10.504Z,7.10
2024-02-29T03:03:10.123Z,7.12
2024-02-29T03:04:31.087Z,7.12
2024-02-29T03:05:10.337Z,7.12
2024-02-29T03:06:11.316Z,7.12
2024-02-29T03:07:10.231Z,7.12
2024-02-29T03:08:10.444Z,7.12
2024-02-29T03:09:10.185Z,7.13
2024-02-29T03:10:10.691Z,7.12
2024-02-29T03:11:10.241Z,7.13
2024-02-29T03:12:12.367Z,7.12
2024-02-29T03:13:10.302Z,7.12
2024-02-29T03:14:32.461Z,7.12
2024-02-29T03:15:10.256Z,7.12
2024-02-29T03:16:12.018Z,7.10
2024-02-29T03:17:10.257Z,7.12
2024-02-29T03:18:18.247Z,7.10
2024-02-29T03:19:11.612Z,7.12
2024-02-29T03:20:10.351Z,7.10
2024-02-29T03:21:10.107Z,7.10
2024-02-29T03:22:10.633Z,7.12
2024-02-29T03:23:10.106Z,7.12
2024-02-29T03:24:30.357Z,7.13
2024-02-29T03:25:10.230Z,7.13
2024-02-29T03:26:10.329Z,7.13
2024-02-29T03:27:10.152Z,7.15
2024-02-29T03:28:10.353Z,7.15
2024-02-29T03:29:12.041Z,7.15
2024-02-29T03:30:09.830Z,7.15
2024-02-29T03:31:10.169Z,7.13
2024-02-29T03:32:09.843Z,7.13
2024-02-29T03:33:12.135Z,7.15
2024-02-29T03:34:30.884Z,7.16
2024-02-29T03:35:10.210Z,7.17
2024-02-29T03:36:09.960Z,7.17
2024-02-29T03:37:10.223Z,7.17
2024-02-29T03:38:10.192Z,7.21
2024-02-29T03:39:10.211Z,7.23
2024-02-29T03:40:09.964Z,7.23
2024-02-29T03:41:12.125Z,7.24
2024-02-29T03:42:09.918Z,7.24
2024-02-29T03:43:10.248Z,7.25
2024-02-29T03:44:29.936Z,7.27
2024-02-29T03:45:10.229Z,7.30
2024-02-29T03:46:11.986Z,7.31
2024-02-29T03:47:09.694Z,7.32
2024-02-29T03:48:10.391Z,7.32
2024-02-29T03:49:10.648Z,7.34
2024-02-29T03:50:09.918Z,7.34
2024-02-29T03:51:10.166Z,7.34
2024-02-29T03:52:09.980Z,7.34
2024-02-29T03:53:09.671Z,7.34
2024-02-29T03:54:35.251Z,7.35
2024-02-29T03:55:09.983Z,7.37
2024-02-29T03:56:09.703Z,7.37
2024-02-29T03:57:11.901Z,7.40
2024-02-29T03:58:09.791Z,7.40
2024-02-29T03:59:09.967Z,7.42
2024-02-29T04:00:09.757Z,7.45
2024-02-29T04:01:10.122Z,7.45
2024-02-29T04:02:09.811Z,7.45
2024-02-29T04:03:09.999Z,7.46
2024-02-29T04:04:29.764Z,7.46
2024-02-29T04:05:10.044Z,7.48
2024-02-29T04:06:10.113Z,7.49
2024-02-29T04:07:09.510Z,7.49
2024-02-29T04:08:11.674Z,7.50
2024-02-29T04:09:09.969Z,7.53
2024-02-29T04:10:09.818Z,7.55
2024-02-29T04:11:09.503Z,7.55
2024-02-29T04:12:09.707Z,7.55
2024-02-29T04:13:11.476Z,7.57
2024-02-29T04:14:29.821Z,7.60
2024-02-29T04:15:11.459Z,7.60
2024-02-29T04:16:09.776Z,7.60
2024-02-29T04:17:09.510Z,7.60
2024-02-29T04:18:09.794Z,7.61
2024-02-29T04:19:11.112Z,7.60
2024-02-29T04:20:10.152Z,7.60
2024-02-29T04:21:09.580Z,7.58
2024-02-29T04:22:09.875Z,7.61
2024-02-29T04:23:09.550Z,7.60
2024-02-29T04:24:29.824Z,7.61
2024-02-29T04:25:09.597Z,7.63
2024-02-29T04:26:11.764Z,7.61
2024-02-29T04:27:11.514Z,7.63
2024-02-29T04:28:09.324Z,7.67
2024-02-29T04:29:09.570Z,7.68
2024-02-29T04:30:09.317Z,7.68
2024-02-29T04:31:11.550Z,7.69
2024-02-29T04:32:09.330Z,7.69
2024-02-29T04:33:09.608Z,7.69
2024-02-29T04:34:29.366Z,7.72
2024-02-29T04:35:09.572Z,7.74
2024-02-29T04:36:09.557Z,7.72
2024-02-29T04:37:09.677Z,7.74
2024-02-29T04:38:10.257Z,7.74
2024-02-29T04:39:09.561Z,7.75
2024-02-29T04:40:11.146Z,7.79
2024-02-29T04:41:09.540Z,7.77
2024-02-29T04:42:09.310Z,7.77
2024-02-29T04:43:09.615Z,7.79
2024-02-29T04:44:29.340Z,7.79
2024-02-29T04:45:09.121Z,7.77
2024-02-29T04:46:09.635Z,7.80
2024-02-29T04:47:09.080Z,7.80
2024-02-29T04:48:09.368Z,7.82
2024-02-29T04:49:09.184Z,7.83
2024-02-29T04:50:10.291Z,7.85
2024-02-29T04:51:09.072Z,7.83
2024-02-29T04:52:09.422Z,7.85
2024-02-29T04:53:09.074Z,7.85
2024-02-29T04:54:29.330Z,7.86
2024-02-29T04:55:09.139Z,7.86
2024-02-29T04:56:10.159Z,7.85
2024-02-29T04:57:11.054Z,7.85
2024-02-29T04:58:11.303Z,7.86
2024-02-29T04:59:10.201Z,7.86
2024-02-29T05:00:09.401Z,7.86
2024-02-29T05:01:10.174Z,7.86
2024-02-29T05:02:11.364Z,7.87
2024-02-29T05:03:09.148Z,7.87
2024-02-29T05:04:29.404Z,7.90
2024-02-29T05:05:09.209Z,7.89
2024-02-29T05:06:08.904Z,7.90
2024-02-29T05:07:09.196Z,7.92
2024-02-29T05:08:08.888Z,7.93
2024-02-29T05:09:09.162Z,7.95
2024-02-29T05:10:09.275Z,7.93
2024-02-29T05:11:09.181Z,7.95
2024-02-29T05:12:08.904Z,7.95
2024-02-29T05:13:11.257Z,7.95
2024-02-29T05:14:28.950Z,7.93
2024-02-29T05:15:09.242Z,7.95
2024-02-29T05:16:09.113Z,7.95
2024-02-29T05:17:11.688Z,7.95
2024-02-29T05:18:10.447Z,7.95
2024-02-29T05:19:09.318Z,7.93
2024-02-29T05:20:09.943Z,7.93
2024-02-29T05:21:08.747Z,7.95
2024-02-29T05:22:09.051Z,7.93
2024-02-29T05:23:08.756Z,7.93
2024-02-29T05:24:29.006Z,7.93
2024-02-29T05:25:08.821Z,7.95
2024-02-29T05:26:10.944Z,7.93
2024-02-29T05:27:08.805Z,7.93
2024-02-29T05:28:09.811Z,7.93
2024-02-29T05:29:08.792Z,7.92
2024-02-29T05:30:08.999Z,7.92
2024-02-29T05:31:08.825Z,7.90
2024-02-29T05:32:09.023Z,7.90
2024-02-29T05:33:08.773Z,7.92
2024-02-29T05:34:28.993Z,7.92
2024-02-29T05:35:08.820Z,7.92
2024-02-29T05:36:08.982Z,7.95
2024-02-29T05:37:09.751Z,7.97
2024-02-29T05:38:08.931Z,7.97
2024-02-29T05:39:08.701Z,7.95
2024-02-29T05:40:14.546Z,8.00
2024-02-29T05:41:08.629Z,8.00
2024-02-29T05:42:09.715Z,8.00
2024-02-29T05:43:08.549Z,8.01
2024-02-29T05:44:28.777Z,8.01
2024-02-29T05:45:08.519Z,8.01
2024-02-29T05:46:08.853Z,8.01
2024-02-29T05:47:08.526Z,8.02
2024-02-29T05:48:08.805Z,8.01
2024-02-29T05:49:08.606Z,8.01
2024-02-29T05:50:10.759Z,8.01
2024-02-29T05:51:08.537Z,8.01
2024-02-29T05:52:08.837Z,8.02
2024-02-29T05:53:08.592Z,8.02
2024-02-29T05:54:28.794Z,8.01
2024-02-29T05:55:08.542Z,8.02
2024-02-29T05:56:08.800Z,8.01
2024-02-29T05:57:08.569Z,8.02
2024-02-29T05:58:10.285Z,8.01
2024-02-29T05:59:09.471Z,8.04
2024-02-29T06:00:09.761Z,8.02
2024-02-29T06:01:08.594Z,8.02
2024-02-29T06:02:08.469Z,8.02
2024-02-29T06:03:08.591Z,8.05
2024-02-29T06:04:28.863Z,8.05
2024-02-29T06:05:08.592Z,8.08
2024-02-29T06:06:08.832Z,8.07
2024-02-29T06:07:08.616Z,8.10
2024-02-29T06:08:08.365Z,8.08
2024-02-29T06:09:08.552Z,8.07
2024-02-29T06:10:08.346Z,8.08
2024-02-29T06:11:08.920Z,8.10
2024-02-29T06:12:08.317Z,8.10
2024-02-29T06:13:08.616Z,8.10
2024-02-29T06:14:28.325Z,8.10
2024-02-29T06:15:10.894Z,8.11
2024-02-29T06:16:08.364Z,8.11
2024-02-29T06:17:08.559Z,8.11
2024-02-29T06:18:08.445Z,8.15
2024-02-29T06:19:08.640Z,8.15
2024-02-29T06:20:09.941Z,8.15
2024-02-29T06:21:15.556Z,8.12
2024-02-29T06:22:08.353Z,8.16
2024-02-29T06:23:08.558Z,8.16
2024-02-29T06:24:30.297Z,8.18
2024-02-29T06:25:08.636Z,8.18
2024-02-29T06:26:08.328Z,8.18
2024-02-29T06:27:08.076Z,8.18
2024-02-29T06:28:08.345Z,8.18
2024-02-29T06:29:08.073Z,8.16
2024-02-29T06:30:08.301Z,8.15
2024-02-29T06:31:09.142Z,8.16
2024-02-29T06:32:08.312Z,8.15
2024-02-29T06:33:09.075Z,8.16
2024-02-29T06:34:28.375Z,8.16
2024-02-29T06:35:08.125Z,8.18
2024-02-29T06:36:10.449Z,8.15
2024-02-29T06:37:08.149Z,8.16
2024-02-29T06:38:09.331Z,8.15
2024-02-29T06:39:08.176Z,8.16
2024-02-29T06:40:09.360Z,8.18
2024-02-29T06:41:08.148Z,8.18
2024-02-29T06:42:07.883Z,8.18
2024-02-29T06:43:08.222Z,8.19
2024-02-29T06:44:28.396Z,8.19
2024-02-29T06:45:09.166Z,8.20
2024-02-29T06:46:08.092Z,8.19
2024-02-29T06:47:08.161Z,8.20
2024-02-29T06:48:07.381Z,8.19
2024-02-29T06:49:07.331Z,8.19
2024-02-29T06:50:07.322Z,8.18
2024-02-29T06:51:07.285Z,8.19
2024-02-29T06:52:07.425Z,8.20
2024-02-29T06:53:07.268Z,8.19
2024-02-29T06:54:27.383Z,8.20
2024-02-29T06:55:07.288Z,8.20
2024-02-29T06:56:07.270Z,8.19
2024-02-29T06:57:07.243Z,8.19
2024-02-29T06:58:07.318Z,8.20
2024-02-29T06:59:07.215Z,8.19
2024-02-29T07:00:07.573Z,8.19
2024-02-29T07:01:07.294Z,8.19
2024-02-29T07:02:10.969Z,8.18
2024-02-29T07:03:07.755Z,8.18
2024-02-29T07:04:27.973Z,8.19
2024-02-29T07:05:07.742Z,8.19
2024-02-29T07:06:07.969Z,8.20
2024-02-29T07:07:07.762Z,8.19
2024-02-29T07:08:07.972Z,8.19
2024-02-29T07:09:07.725Z,8.20
2024-02-29T07:10:08.138Z,8.19
2024-02-29T07:11:07.774Z,8.19
2024-02-29T07:12:07.071Z,8.22
2024-02-29T07:13:07.906Z,8.22
2024-02-29T07:14:28.068Z,8.22
2024-02-29T07:15:07.898Z,8.23
2024-02-29T07:16:07.669Z,8.23
2024-02-29T07:17:07.875Z,8.25
2024-02-29T07:18:07.668Z,8.25
2024-02-29T07:19:07.919Z,8.26
2024-02-29T07:20:07.614Z,8.26
2024-02-29T07:21:07.863Z,8.28
2024-02-29T07:22:08.622Z,8.29
2024-02-29T07:23:07.873Z,8.29
2024-02-29T07:24:27.633Z,8.33
2024-02-29T07:25:07.871Z,8.33
2024-02-29T07:26:07.604Z,8.33
2024-02-29T07:27:07.855Z,8.34
2024-02-29T07:28:07.630Z,8.33
2024-02-29T07:29:07.893Z,8.36
2024-02-29T07:30:07.605Z,8.36
2024-02-29T07:31:07.928Z,8.36
2024-02-29T07:32:07.593Z,8.37
2024-02-29T07:33:14.742Z,8.40
2024-02-29T07:34:27.476Z,8.41
2024-02-29T07:35:08.547Z,8.44
2024-02-29T07:36:07.537Z,8.45
2024-02-29T07:37:07.683Z,8.47
2024-02-29T07:38:07.658Z,8.48
2024-02-29T07:39:07.677Z,8.52
2024-02-29T07:40:07.523Z,8.55
2024-02-29T07:41:07.686Z,8.55
2024-02-29T07:42:07.434Z,8.56
2024-02-29T07:43:10.524Z,8.59
2024-02-29T07:44:27.439Z,8.59
2024-02-29T07:45:07.675Z,8.58
2024-02-29T07:46:07.445Z,8.61
2024-02-29T07:47:14.930Z,8.62
2024-02-29T07:48:09.750Z,8.65
2024-02-29T07:49:08.439Z,8.65
2024-02-29T07:50:09.179Z,8.66
2024-02-29T07:51:08.439Z,8.66
2024-02-29T07:52:07.290Z,8.68
2024-02-29T07:53:07.482Z,8.70
2024-02-29T07:54:27.328Z,8.73
2024-02-29T07:55:07.565Z,8.74
2024-02-29T07:56:07.222Z,8.74
2024-02-29T07:57:07.486Z,8.76
2024-02-29T07:58:07.206Z,8.76
2024-02-29T07:59:08.413Z,8.77
2024-02-29T08:00:07.239Z,8.80
2024-02-29T08:01:12.869Z,8.80
2024-02-29T08:02:07.688Z,8.81
2024-02-29T08:03:08.274Z,8.84
2024-02-29T08:04:27.581Z,8.86
2024-02-29T08:05:08.269Z,8.87
2024-02-29T08:06:07.124Z,8.91
2024-02-29T08:07:07.395Z,8.92
2024-02-29T08:08:07.121Z,8.92
2024-02-29T08:09:10.334Z,8.92
2024-02-29T08:10:07.189Z,8.95
2024-02-29T08:11:07.367Z,8.95
2024-02-29T08:12:07.130Z,8.96
2024-02-29T08:13:07.367Z,8.98
2024-02-29T08:14:27.181Z,8.99
2024-02-29T08:15:07.418Z,8.99
2024-02-29T08:16:07.281Z,9.04
2024-02-29T08:17:06.940Z,9.05
2024-02-29T08:18:07.235Z,9.05
2024-02-29T08:19:07.472Z,9.10
2024-02-29T08:20:07.230Z,9.14
2024-02-29T08:21:06.928Z,9.15
2024-02-29T08:22:07.298Z,9.17
2024-02-29T08:23:06.950Z,9.21
2024-02-29T08:24:27.220Z,9.24
2024-02-29T08:25:06.989Z,9.23
2024-02-29T08:26:07.260Z,9.29
2024-02-29T08:27:06.981Z,9.31
2024-02-29T08:28:07.342Z,9.31
2024-02-29T08:29:14.337Z,9.33
2024-02-29T08:30:08.955Z,9.33
2024-02-29T08:31:06.840Z,9.39
2024-02-29T08:32:07.121Z,9.38
2024-02-29T08:33:07.068Z,9.39
2024-02-29T08:34:27.146Z,9.46
2024-02-29T08:35:06.831Z,9.47
2024-02-29T08:36:07.062Z,9.53
2024-02-29T08:37:06.859Z,9.56
2024-02-29T08:38:07.075Z,9.57
2024-02-29T08:39:06.817Z,9.58
2024-02-29T08:40:07.182Z,9.61
2024-02-29T08:41:06.833Z,9.60
2024-02-29T08:42:08.000Z,9.60
2024-02-29T08:43:06.946Z,9.65
2024-02-29T08:44:27.046Z,9.66
2024-02-29T08:45:06.793Z,9.65
2024-02-29T08:46:07.186Z,9.68
2024-02-29T08:47:06.884Z,9.71
2024-02-29T08:48:07.169Z,9.69
2024-02-29T08:49:08.941Z,9.71
2024-02-29T08:50:06.683Z,9.68
2024-02-29T08:51:06.908Z,9.71
2024-02-29T08:52:06.707Z,9.75
2024-02-29T08:53:06.900Z,9.75
2024-02-29T08:54:26.663Z,9.78
2024-02-29T08:55:06.928Z,9.78
2024-02-29T08:56:06.654Z,9.79
2024-02-29T08:57:06.919Z,9.81
2024-02-29T08:58:06.746Z,9.86
2024-02-29T08:59:06.934Z,9.86
2024-02-29T09:00:06.693Z,9.89
2024-02-29T09:01:07.012Z,9.89
2024-02-29T09:02:06.964Z,9.93
2024-02-29T09:03:06.915Z,9.89
2024-02-29T09:04:26.687Z,9.90
2024-02-29T09:05:06.917Z,9.89
2024-02-29T09:06:06.676Z,9.87
2024-02-29T09:07:08.436Z,9.86
2024-02-29T09:08:07.792Z,9.86
2024-02-29T09:09:08.606Z,9.84
2024-02-29T09:10:08.559Z,9.84
2024-02-29T09:11:08.943Z,9.84
2024-02-29T09:12:06.777Z,9.87
2024-02-29T09:13:20.129Z,9.87
2024-02-29T09:14:27.832Z,9.87
2024-02-29T09:15:08.155Z,9.86
2024-02-29T09:16:07.478Z,9.86
2024-02-29T09:17:08.248Z,9.84
2024-02-29T09:18:07.584Z,9.84
2024-02-29T09:19:08.481Z,9.86
2024-02-29T09:20:08.312Z,9.86
2024-02-29T09:21:08.790Z,9.86
2024-02-29T09:22:07.661Z,9.87
2024-02-29T09:23:07.368Z,9.87
2024-02-29T09:24:26.720Z,9.90
2024-02-29T09:25:08.486Z,9.90
2024-02-29T09:26:07.265Z,9.91
2024-02-29T09:27:08.559Z,9.93
2024-02-29T09:28:08.391Z,9.93
2024-02-29T09:29:07.683Z,9.93
2024-02-29T09:30:07.325Z,9.94
2024-02-29T09:31:08.365Z,9.97
2024-02-29T09:32:09.151Z,9.97
2024-02-29T09:33:08.437Z,9.96
2024-02-29T09:34:36.457Z,9.99
2024-02-29T09:35:07.323Z,9.99
2024-02-29T09:36:07.532Z,9.99
2024-02-29T09:37:07.403Z,10.02
2024-02-29T09:38:08.170Z,10.04
2024-02-29T09:39:07.448Z,10.05
2024-02-29T09:40:08.396Z,10.05
2024-02-29T09:41:18.619Z,10.07
2024-02-29T09:42:13.576Z,10.09
2024-02-29T09:43:07.265Z,10.11
2024-02-29T09:44:26.516Z,10.17
2024-02-29T09:45:08.233Z,10.17
2024-02-29T09:46:07.602Z,10.17
2024-02-29T09:47:07.348Z,10.17
2024-02-29T09:48:08.144Z,10.17
2024-02-29T09:49:06.624Z,10.17
2024-02-29T09:50:07.250Z,10.18
2024-02-29T09:51:07.709Z,10.20
2024-02-29T09:52:06.843Z,10.25
2024-02-29T09:53:07.870Z,10.26
2024-02-29T09:54:26.206Z,10.29
2024-02-29T09:55:06.422Z,10.26
2024-02-29T09:56:07.302Z,10.27
2024-02-29T09:57:10.619Z,10.27
2024-02-29T09:58:06.869Z,10.27
2024-02-29T09:59:07.278Z,10.32
2024-02-29T10:00:08.061Z,10.33
2024-02-29T10:01:07.940Z,10.33
2024-02-29T10:02:08.248Z,10.33
2024-02-29T10:03:07.046Z,10.33
2024-02-29T10:04:26.374Z,10.33
2024-02-29T10:05:08.062Z,10.33
2024-02-29T10:06:07.922Z,10.29
2024-02-29T10:07:08.216Z,10.32
2024-02-29T10:08:08.006Z,10.29
2024-02-29T10:09:06.562Z,10.27
2024-02-29T10:10:07.534Z,10.29
2024-02-29T10:11:06.761Z,10.27
2024-02-29T10:12:07.997Z,10.27
2024-02-29T10:13:07.817Z,10.29
2024-02-29T10:14:26.167Z,10.32
2024-02-29T10:15:07.872Z,10.32
2024-02-29T10:16:08.173Z,10.33
2024-02-29T10:17:07.482Z,10.33
2024-02-29T10:18:08.772Z,10.34
2024-02-29T10:19:08.092Z,10.34
2024-02-29T10:20:08.328Z,10.34
2024-02-29T10:21:07.653Z,10.40
2024-02-29T10:22:07.027Z,10.40
2024-02-29T10:23:06.842Z,10.40
2024-02-29T10:24:25.658Z,10.42
2024-02-29T10:25:07.946Z,10.44
2024-02-29T10:26:06.356Z,10.44
2024-02-29T10:27:08.045Z,10.45
2024-02-29T10:28:08.483Z,10.47
2024-02-29T10:29:07.737Z,10.51
2024-02-29T10:30:07.174Z,10.53
2024-02-29T10:31:07.000Z,10.60
2024-02-29T10:32:06.796Z,10.56
2024-02-29T10:33:07.666Z,10.60
2024-02-29T10:34:26.133Z,10.63
2024-02-29T10:35:07.255Z,10.63
2024-02-29T10:36:07.534Z,10.66
2024-02-29T10:37:06.482Z,10.67
2024-02-29T10:38:06.718Z,10.68
2024-02-29T10:39:06.584Z,10.71
2024-02-29T10:40:08.690Z,10.73
2024-02-29T10:41:07.731Z,10.74
2024-02-29T10:42:07.536Z,10.78
2024-02-29T10:43:07.911Z,10.81
2024-02-29T10:44:25.705Z,10.82
2024-02-29T10:45:07.483Z,10.82
2024-02-29T10:46:07.832Z,10.81
2024-02-29T10:47:07.612Z,10.84
2024-02-29T10:48:06.454Z,10.85
2024-02-29T10:49:07.737Z,10.86
2024-02-29T10:50:06.337Z,10.86
2024-02-29T10:51:06.396Z,10.88
2024-02-29T10:52:06.716Z,10.92
2024-02-29T10:53:09.831Z,10.92
2024-02-29T10:54:25.642Z,10.96
2024-02-29T10:55:07.227Z,10.94
2024-02-29T10:56:07.718Z,10.97
2024-02-29T10:57:07.566Z,10.97
2024-02-29T10:58:07.553Z,11.00
2024-02-29T10:59:07.344Z,11.00
2024-02-29T11:00:07.157Z,11.03
2024-02-29T11:01:06.420Z,11.06
2024-02-29T11:02:07.370Z,11.06
2024-02-29T11:03:07.608Z,11.06
2024-02-29T11:04:25.511Z,11.06
2024-02-29T11:05:07.663Z,11.07
2024-02-29T11:06:06.240Z,11.09
2024-02-29T11:07:07.177Z,11.09
2024-02-29T11:08:06.006Z,11.09
2024-02-29T11:09:07.539Z,11.10
2024-02-29T11:10:07.458Z,11.10
2024-02-29T11:11:06.226Z,11.11
2024-02-29T11:12:05.867Z,11.11
2024-02-29T11:13:07.422Z,11.14
2024-02-29T11:14:26.590Z,11.15
2024-02-29T11:15:07.417Z,11.18
2024-02-29T11:16:07.300Z,11.17
2024-02-29T11:17:07.083Z,11.19
2024-02-29T11:18:06.462Z,11.19
2024-02-29T11:19:06.264Z,11.21
2024-02-29T11:20:06.054Z,11.19
2024-02-29T11:21:06.450Z,11.21
2024-02-29T11:22:07.045Z,11.22
2024-02-29T11:23:10.947Z,11.22
2024-02-29T11:24:26.437Z,11.25
2024-02-29T11:25:06.713Z,11.25
2024-02-29T11:26:07.486Z,11.25
2024-02-29T11:27:07.234Z,11.27
2024-02-29T11:28:07.057Z,11.28
2024-02-29T11:29:07.482Z,11.25
2024-02-29T11:30:06.278Z,11.24
2024-02-29T11:31:06.155Z,11.25
2024-02-29T11:32:08.894Z,11.25
2024-02-29T11:33:06.834Z,11.27
2024-02-29T11:34:25.226Z,11.24
2024-02-29T11:35:05.858Z,11.22
2024-02-29T11:36:05.884Z,11.18
2024-02-29T11:37:07.122Z,11.18
2024-02-29T11:38:06.862Z,11.18
2024-02-29T11:39:07.191Z,11.17
2024-02-29T11:40:07.225Z,11.19
2024-02-29T11:41:04.863Z,11.21
2024-02-29T11:42:05.131Z,11.24
2024-02-29T11:43:04.897Z,11.24
2024-02-29T11:44:26.338Z,11.21
2024-02-29T11:45:05.016Z,11.22
2024-02-29T11:46:06.849Z,11.21
2024-02-29T11:47:05.063Z,11.22
2024-02-29T11:48:04.946Z,11.21
2024-02-29T11:49:05.080Z,11.22
2024-02-29T11:50:04.840Z,11.18
2024-02-29T11:51:05.095Z,11.19
2024-02-29T11:52:05.938Z,11.17
2024-02-29T11:53:07.557Z,11.18
2024-02-29T11:54:27.115Z,11.18
2024-02-29T11:55:06.701Z,11.18
2024-02-29T11:56:15.193Z,11.21
2024-02-29T11:57:07.712Z,11.18
2024-02-29T11:58:07.009Z,11.15
2024-02-29T11:59:06.779Z,11.10
2024-02-29T12:00:07.007Z,11.11
2024-02-29T12:01:05.659Z,11.10
2024-02-29T12:02:06.479Z,11.09
2024-02-29T12:03:06.420Z,11.10
2024-02-29T12:04:26.845Z,11.06
2024-02-29T12:05:05.096Z,11.04
2024-02-29T12:06:05.790Z,11.04
2024-02-29T12:07:06.608Z,11.03
2024-02-29T12:08:06.874Z,11.02
2024-02-29T12:09:06.578Z,11.03
2024-02-29T12:10:06.897Z,11.04
2024-02-29T12:11:05.426Z,11.03
2024-02-29T12:12:04.935Z,11.03
2024-02-29T12:13:04.724Z,11.02
2024-02-29T12:14:26.059Z,10.99
2024-02-29T12:15:04.762Z,10.99
2024-02-29T12:16:06.540Z,10.97
2024-02-29T12:17:04.804Z,10.96
2024-02-29T12:18:04.536Z,10.96
2024-02-29T12:19:04.890Z,10.96
2024-02-29T12:20:04.552Z,10.92
2024-02-29T12:21:04.843Z,10.92
2024-02-29T12:22:04.626Z,10.91
2024-02-29T12:23:04.848Z,10.91
2024-02-29T12:24:25.294Z,10.92
2024-02-29T12:25:04.461Z,10.92
2024-02-29T12:26:04.768Z,10.91
2024-02-29T12:27:05.370Z,10.92
2024-02-29T12:28:04.749Z,10.94
2024-02-29T12:29:05.416Z,10.96
2024-02-29T12:30:05.672Z,10.96
2024-02-29T12:31:04.570Z,10.94
2024-02-29T12:32:06.245Z,10.94
2024-02-29T12:33:04.739Z,10.89
2024-02-29T12:34:26.852Z,10.86
2024-02-29T12:35:05.560Z,10.85
2024-02-29T12:36:06.425Z,10.84
2024-02-29T12:37:05.608Z,10.85
2024-02-29T12:38:04.577Z,10.85
2024-02-29T12:39:04.712Z,10.85
2024-02-29T12:40:05.476Z,10.84
2024-02-29T12:41:06.723Z,10.82
2024-02-29T12:42:04.601Z,10.82
2024-02-29T12:43:04.376Z,10.82
2024-02-29T12:44:26.528Z,10.84
2024-02-29T12:45:04.341Z,10.81
2024-02-29T12:46:04.880Z,10.81
2024-02-29T12:47:05.316Z,10.84
2024-02-29T12:48:05.630Z,10.84
2024-02-29T12:49:03.685Z,10.86
2024-02-29T12:50:04.405Z,10.89
2024-02-29T12:51:04.124Z,10.91
2024-02-29T12:52:04.411Z,10.97
2024-02-29T12:53:04.136Z,10.99
2024-02-29T12:54:26.062Z,10.97
2024-02-29T12:55:06.317Z,11.00
2024-02-29T12:56:08.083Z,11.00
2024-02-29T12:57:07.730Z,11.02
2024-02-29T12:58:05.205Z,11.04
2024-02-29T12:59:06.063Z,11.07
2024-02-29T13:00:06.515Z,11.07
2024-02-29T13:01:06.616Z,11.10
2024-02-29T13:02:06.362Z,11.10
2024-02-29T13:03:08.242Z,11.15
2024-02-29T13:04:30.844Z,11.11
2024-02-29T13:05:05.097Z,11.11
2024-02-29T13:06:06.394Z,11.14
2024-02-29T13:07:05.414Z,11.07
2024-02-29T13:08:06.091Z,11.04
2024-02-29T13:09:06.393Z,11.04
2024-02-29T13:10:05.821Z,11.06
2024-02-29T13:11:06.310Z,11.07
2024-02-29T13:12:05.962Z,11.06
2024-02-29T13:13:10.283Z,11.09